sensor_id;sensor_type;location;lat;lon;timestamp;pressure;altitude;pressure_sealevel;temperature;humidity
24336;BME280;33098;52.400;16.880;2023-06-01T00:00:49;100871.61;;;16.27;50.07
24336;BME280;33098;52.400;16.880;2023-06-01T00:03:36;100869.43;;;16.29;50.09
24336;BME280;33098;52.400;16.880;2023-06-01T00:06:03;100872.94;;;16.23;50.11
24336;BME280;33098;52.400;16.880;2023-06-01T00:08:30;100871.77;;;16.20;50.12
24336;BME280;33098;52.400;16.880;2023-06-01T00:10:56;100875.70;;;16.14;50.17
24336;BME280;33098;52.400;16.880;2023-06-01T00:13:23;100872.17;;;16.13;50.34
24336;BME280;33098;52.400;16.880;2023-06-01T00:15:49;100871.70;;;16.11;50.33
24336;BME280;33098;52.400;16.880;2023-06-01T00:18:17;100870.34;;;16.07;50.45
24336;BME280;33098;52.400;16.880;2023-06-01T00:20:44;100865.92;;;16.04;50.49
24336;BME280;33098;52.400;16.880;2023-06-01T00:23:10;100868.05;;;16.06;50.50
24336;BME280;33098;52.400;16.880;2023-06-01T00:25:37;100866.80;;;16.08;50.56
24336;BME280;33098;52.400;16.880;2023-06-01T00:28:04;100865.26;;;16.06;50.50
24336;BME280;33098;52.400;16.880;2023-06-01T00:30:30;100863.27;;;16.04;50.63
24336;BME280;33098;52.400;16.880;2023-06-01T00:32:57;100864.22;;;15.99;50.76
24336;BME280;33098;52.400;16.880;2023-06-01T00:35:23;100860.87;;;15.97;50.76
24336;BME280;33098;52.400;16.880;2023-06-01T00:37:50;100858.04;;;15.96;50.91
24336;BME280;33098;52.400;16.880;2023-06-01T00:40:17;100865.98;;;15.92;50.94
24336;BME280;33098;52.400;16.880;2023-06-01T00:42:44;100863.38;;;15.88;51.02
24336;BME280;33098;52.400;16.880;2023-06-01T00:45:11;100864.37;;;15.87;51.18
24336;BME280;33098;52.400;16.880;2023-06-01T00:47:40;100859.53;;;15.87;51.24
24336;BME280;33098;52.400;16.880;2023-06-01T00:50:10;100860.45;;;15.86;51.31
24336;BME280;33098;52.400;16.880;2023-06-01T00:52:37;100859.59;;;15.88;51.36
24336;BME280;33098;52.400;16.880;2023-06-01T00:55:06;100860.86;;;15.85;51.53
24336;BME280;33098;52.400;16.880;2023-06-01T00:57:33;100858.05;;;15.87;51.49
24336;BME280;33098;52.400;16.880;2023-06-01T01:00:02;100858.02;;;15.83;51.72
24336;BME280;33098;52.400;16.880;2023-06-01T01:02:36;100857.75;;;15.78;51.83
24336;BME280;33098;52.400;16.880;2023-06-01T01:05:08;100854.71;;;15.80;51.89
24336;BME280;33098;52.400;16.880;2023-06-01T01:07:55;100850.67;;;15.83;51.99
24336;BME280;33098;52.400;16.880;2023-06-01T01:10:38;100850.05;;;15.86;52.09
24336;BME280;33098;52.400;16.880;2023-06-01T01:13:10;100843.35;;;15.85;52.12
24336;BME280;33098;52.400;16.880;2023-06-01T01:16:02;100844.51;;;15.80;52.10
24336;BME280;33098;52.400;16.880;2023-06-01T01:18:39;100839.95;;;15.77;52.30
24336;BME280;33098;52.400;16.880;2023-06-01T01:21:09;100840.61;;;15.82;52.33
24336;BME280;33098;52.400;16.880;2023-06-01T01:24:35;100838.80;;;15.86;52.36
24336;BME280;33098;52.400;16.880;2023-06-01T01:27:43;100836.52;;;15.82;52.25
24336;BME280;33098;52.400;16.880;2023-06-01T01:30:11;100834.36;;;15.74;52.21
24336;BME280;33098;52.400;16.880;2023-06-01T01:32:40;100827.50;;;15.71;52.40
24336;BME280;33098;52.400;16.880;2023-06-01T01:35:07;100825.60;;;15.68;52.45
24336;BME280;33098;52.400;16.880;2023-06-01T01:37:36;100823.16;;;15.67;52.51
24336;BME280;33098;52.400;16.880;2023-06-01T01:40:03;100822.13;;;15.65;52.55
24336;BME280;33098;52.400;16.880;2023-06-01T01:42:31;100820.82;;;15.64;52.60
24336;BME280;33098;52.400;16.880;2023-06-01T01:44:58;100822.04;;;15.64;52.72
24336;BME280;33098;52.400;16.880;2023-06-01T01:47:31;100819.53;;;15.60;52.72
24336;BME280;33098;52.400;16.880;2023-06-01T01:50:05;100815.94;;;15.55;52.74
24336;BME280;33098;52.400;16.880;2023-06-01T01:52:38;100814.80;;;15.53;52.91
24336;BME280;33098;52.400;16.880;2023-06-01T01:55:10;100808.84;;;15.48;52.98
24336;BME280;33098;52.400;16.880;2023-06-01T01:57:37;100809.09;;;15.38;53.07
24336;BME280;33098;52.400;16.880;2023-06-01T02:00:06;100808.85;;;15.33;53.33
24336;BME280;33098;52.400;16.880;2023-06-01T02:02:40;100810.40;;;15.35;53.39
24336;BME280;33098;52.400;16.880;2023-06-01T02:05:07;100810.20;;;15.41;53.38
24336;BME280;33098;52.400;16.880;2023-06-01T02:07:34;100809.70;;;15.41;53.27
24336;BME280;33098;52.400;16.880;2023-06-01T02:10:01;100810.08;;;15.43;53.39
24336;BME280;33098;52.400;16.880;2023-06-01T02:12:29;100809.16;;;15.47;53.42
24336;BME280;33098;52.400;16.880;2023-06-01T02:14:56;100813.71;;;15.50;53.32
24336;BME280;33098;52.400;16.880;2023-06-01T02:17:22;100813.18;;;15.46;53.24
24336;BME280;33098;52.400;16.880;2023-06-01T02:19:51;100812.25;;;15.44;53.35
24336;BME280;33098;52.400;16.880;2023-06-01T02:22:18;100812.36;;;15.43;53.26
24336;BME280;33098;52.400;16.880;2023-06-01T02:24:44;100815.25;;;15.37;53.46
24336;BME280;33098;52.400;16.880;2023-06-01T02:27:11;100812.23;;;15.33;53.48
24336;BME280;33098;52.400;16.880;2023-06-01T02:29:38;100814.24;;;15.30;53.58
24336;BME280;33098;52.400;16.880;2023-06-01T02:32:04;100815.77;;;15.31;53.67
24336;BME280;33098;52.400;16.880;2023-06-01T02:34:32;100813.63;;;15.31;53.66
24336;BME280;33098;52.400;16.880;2023-06-01T02:36:58;100811.42;;;15.32;53.74
24336;BME280;33098;52.400;16.880;2023-06-01T02:39:26;100806.80;;;15.28;53.70
24336;BME280;33098;52.400;16.880;2023-06-01T02:41:52;100804.88;;;15.29;53.79
24336;BME280;33098;52.400;16.880;2023-06-01T02:44:20;100803.33;;;15.31;53.83
24336;BME280;33098;52.400;16.880;2023-06-01T02:46:46;100802.39;;;15.26;53.77
24336;BME280;33098;52.400;16.880;2023-06-01T02:49:13;100799.89;;;15.24;53.90
24336;BME280;33098;52.400;16.880;2023-06-01T02:51:39;100801.77;;;15.23;53.87
24336;BME280;33098;52.400;16.880;2023-06-01T02:54:14;100801.77;;;15.23;54.09
24336;BME280;33098;52.400;16.880;2023-06-01T02:56:41;100794.89;;;15.27;53.99
24336;BME280;33098;52.400;16.880;2023-06-01T02:59:30;100794.73;;;15.27;54.19
24336;BME280;33098;52.400;16.880;2023-06-01T03:02:00;100793.75;;;15.30;54.09
24336;BME280;33098;52.400;16.880;2023-06-01T03:04:27;100795.40;;;15.31;54.10
24336;BME280;33098;52.400;16.880;2023-06-01T03:06:55;100795.70;;;15.30;54.11
24336;BME280;33098;52.400;16.880;2023-06-01T03:09:32;100793.75;;;15.28;54.09
24336;BME280;33098;52.400;16.880;2023-06-01T03:12:19;100794.69;;;15.20;53.91
24336;BME280;33098;52.400;16.880;2023-06-01T03:14:46;100797.66;;;15.09;53.68
24336;BME280;33098;52.400;16.880;2023-06-01T03:17:12;100803.27;;;15.06;53.88
24336;BME280;33098;52.400;16.880;2023-06-01T03:19:39;100799.02;;;15.04;53.78
24336;BME280;33098;52.400;16.880;2023-06-01T03:22:14;100802.01;;;15.00;53.83
24336;BME280;33098;52.400;16.880;2023-06-01T03:24:41;100798.83;;;14.96;53.84
24336;BME280;33098;52.400;16.880;2023-06-01T03:27:10;100799.73;;;14.92;53.81
24336;BME280;33098;52.400;16.880;2023-06-01T03:29:39;100802.63;;;14.88;53.97
24336;BME280;33098;52.400;16.880;2023-06-01T03:32:07;100801.08;;;14.93;54.01
24336;BME280;33098;52.400;16.880;2023-06-01T03:34:34;100800.37;;;15.01;53.92
24336;BME280;33098;52.400;16.880;2023-06-01T03:37:03;100800.59;;;15.08;53.86
24336;BME280;33098;52.400;16.880;2023-06-01T03:39:30;100798.00;;;15.15;53.81
24336;BME280;33098;52.400;16.880;2023-06-01T03:42:01;100797.04;;;15.28;53.78
24336;BME280;33098;52.400;16.880;2023-06-01T03:44:27;100797.90;;;15.28;53.72
24336;BME280;33098;52.400;16.880;2023-06-01T03:46:54;100795.18;;;15.12;53.82
24336;BME280;33098;52.400;16.880;2023-06-01T03:49:20;100799.61;;;15.03;53.91
24336;BME280;33098;52.400;16.880;2023-06-01T03:51:47;100803.31;;;15.06;53.99
24336;BME280;33098;52.400;16.880;2023-06-01T03:54:14;100795.65;;;15.11;54.04
24336;BME280;33098;52.400;16.880;2023-06-01T03:56:41;100795.69;;;15.13;53.98
24336;BME280;33098;52.400;16.880;2023-06-01T03:59:07;100794.83;;;15.22;54.05
24336;BME280;33098;52.400;16.880;2023-06-01T04:01:37;100793.86;;;15.31;54.06
24336;BME280;33098;52.400;16.880;2023-06-01T04:04:06;100792.14;;;15.30;53.89
24336;BME280;33098;52.400;16.880;2023-06-01T04:06:35;100790.77;;;15.35;53.85
24336;BME280;33098;52.400;16.880;2023-06-01T04:09:03;100787.50;;;15.36;53.83
24336;BME280;33098;52.400;16.880;2023-06-01T04:11:33;100787.86;;;15.31;53.80
24336;BME280;33098;52.400;16.880;2023-06-01T04:14:00;100784.45;;;15.36;53.78
24336;BME280;33098;52.400;16.880;2023-06-01T04:16:27;100786.61;;;15.37;53.89
24336;BME280;33098;52.400;16.880;2023-06-01T04:18:54;100781.48;;;15.41;53.96
24336;BME280;33098;52.400;16.880;2023-06-01T04:21:25;100776.85;;;15.37;53.95
24336;BME280;33098;52.400;16.880;2023-06-01T04:23:52;100773.02;;;15.45;54.05
24336;BME280;33098;52.400;16.880;2023-06-01T04:26:22;100771.45;;;15.54;54.06
24336;BME280;33098;52.400;16.880;2023-06-01T04:28:49;100774.81;;;15.52;54.15
24336;BME280;33098;52.400;16.880;2023-06-01T04:31:16;100771.67;;;15.59;54.23
24336;BME280;33098;52.400;16.880;2023-06-01T04:33:44;100766.71;;;15.68;54.23
24336;BME280;33098;52.400;16.880;2023-06-01T04:36:12;100767.73;;;15.76;54.28
24336;BME280;33098;52.400;16.880;2023-06-01T04:38:40;100763.71;;;15.89;54.19
24336;BME280;33098;52.400;16.880;2023-06-01T04:41:09;100764.17;;;16.03;54.34
24336;BME280;33098;52.400;16.880;2023-06-01T04:43:38;100761.56;;;16.08;54.39
24336;BME280;33098;52.400;16.880;2023-06-01T04:46:06;100763.16;;;16.10;54.28
24336;BME280;33098;52.400;16.880;2023-06-01T04:48:34;100758.58;;;16.14;54.41
24336;BME280;33098;52.400;16.880;2023-06-01T04:51:02;100756.88;;;16.21;54.43
24336;BME280;33098;52.400;16.880;2023-06-01T04:53:30;100756.37;;;16.30;54.36
24336;BME280;33098;52.400;16.880;2023-06-01T04:55:57;100758.55;;;16.37;54.35
24336;BME280;33098;52.400;16.880;2023-06-01T04:58:26;100755.06;;;16.40;54.35
24336;BME280;33098;52.400;16.880;2023-06-01T05:00:52;100752.77;;;16.50;54.40
24336;BME280;33098;52.400;16.880;2023-06-01T05:03:20;100753.37;;;16.60;54.51
24336;BME280;33098;52.400;16.880;2023-06-01T05:05:47;100748.70;;;16.68;54.60
24336;BME280;33098;52.400;16.880;2023-06-01T05:08:14;100745.67;;;16.67;54.64
24336;BME280;33098;52.400;16.880;2023-06-01T05:10:42;100747.98;;;16.70;54.59
24336;BME280;33098;52.400;16.880;2023-06-01T05:13:08;100744.90;;;16.79;54.62
24336;BME280;33098;52.400;16.880;2023-06-01T05:15:35;100741.52;;;16.90;54.77
24336;BME280;33098;52.400;16.880;2023-06-01T05:18:02;100736.79;;;16.98;54.71
24336;BME280;33098;52.400;16.880;2023-06-01T05:20:29;100735.83;;;17.07;54.68
24336;BME280;33098;52.400;16.880;2023-06-01T05:22:58;100729.10;;;17.17;54.84
24336;BME280;33098;52.400;16.880;2023-06-01T05:25:25;100724.92;;;17.25;54.86
24336;BME280;33098;52.400;16.880;2023-06-01T05:27:52;100723.89;;;17.31;54.98
24336;BME280;33098;52.400;16.880;2023-06-01T05:30:19;100725.55;;;17.38;54.82
24336;BME280;33098;52.400;16.880;2023-06-01T05:32:47;100719.36;;;17.42;54.91
24336;BME280;33098;52.400;16.880;2023-06-01T05:35:17;100718.67;;;17.47;55.11
24336;BME280;33098;52.400;16.880;2023-06-01T05:37:44;100717.11;;;17.50;55.26
24336;BME280;33098;52.400;16.880;2023-06-01T05:40:11;100717.46;;;17.52;55.51
24336;BME280;33098;52.400;16.880;2023-06-01T05:42:39;100724.98;;;17.57;55.47
24336;BME280;33098;52.400;16.880;2023-06-01T05:45:06;100728.76;;;17.62;55.64
24336;BME280;33098;52.400;16.880;2023-06-01T05:47:33;100724.91;;;17.67;55.68
24336;BME280;33098;52.400;16.880;2023-06-01T05:50:00;100727.11;;;17.71;55.96
24336;BME280;33098;52.400;16.880;2023-06-01T05:52:26;100723.83;;;17.73;55.99
24336;BME280;33098;52.400;16.880;2023-06-01T05:54:53;100725.40;;;17.77;55.75
24336;BME280;33098;52.400;16.880;2023-06-01T05:57:20;100720.07;;;17.86;55.78
24336;BME280;33098;52.400;16.880;2023-06-01T05:59:47;100721.73;;;17.89;56.06
24336;BME280;33098;52.400;16.880;2023-06-01T06:02:14;100723.60;;;17.91;56.03
24336;BME280;33098;52.400;16.880;2023-06-01T06:04:40;100718.91;;;17.95;55.80
24336;BME280;33098;52.400;16.880;2023-06-01T06:07:07;100714.59;;;18.05;55.68
24336;BME280;33098;52.400;16.880;2023-06-01T06:09:33;100712.36;;;18.15;55.37
24336;BME280;33098;52.400;16.880;2023-06-01T06:12:00;100709.65;;;18.20;55.27
24336;BME280;33098;52.400;16.880;2023-06-01T06:14:27;100711.11;;;18.25;55.31
24336;BME280;33098;52.400;16.880;2023-06-01T06:16:54;100713.72;;;18.29;55.32
24336;BME280;33098;52.400;16.880;2023-06-01T06:19:21;100713.23;;;18.30;55.49
24336;BME280;33098;52.400;16.880;2023-06-01T06:21:48;100713.44;;;18.28;55.28
24336;BME280;33098;52.400;16.880;2023-06-01T06:24:15;100713.70;;;18.33;55.62
24336;BME280;33098;52.400;16.880;2023-06-01T06:26:41;100721.12;;;18.39;55.59
24336;BME280;33098;52.400;16.880;2023-06-01T06:29:08;100717.86;;;18.49;55.59
24336;BME280;33098;52.400;16.880;2023-06-01T06:31:34;100718.15;;;18.57;55.58
24336;BME280;33098;52.400;16.880;2023-06-01T06:34:01;100717.48;;;18.62;55.58
24336;BME280;33098;52.400;16.880;2023-06-01T06:36:27;100715.83;;;18.69;55.57
24336;BME280;33098;52.400;16.880;2023-06-01T06:38:54;100722.67;;;18.74;55.55
24336;BME280;33098;52.400;16.880;2023-06-01T06:41:20;100716.41;;;18.79;55.46
24336;BME280;33098;52.400;16.880;2023-06-01T06:43:47;100714.66;;;18.82;55.45
24336;BME280;33098;52.400;16.880;2023-06-01T06:46:13;100715.70;;;18.86;55.49
24336;BME280;33098;52.400;16.880;2023-06-01T06:48:40;100715.14;;;18.89;55.45
24336;BME280;33098;52.400;16.880;2023-06-01T06:51:07;100716.88;;;18.92;55.51
24336;BME280;33098;52.400;16.880;2023-06-01T06:53:33;100708.41;;;18.95;55.39
24336;BME280;33098;52.400;16.880;2023-06-01T06:56:00;100709.83;;;18.97;55.32
24336;BME280;33098;52.400;16.880;2023-06-01T06:58:27;100708.81;;;19.00;55.46
24336;BME280;33098;52.400;16.880;2023-06-01T07:00:53;100704.98;;;18.98;55.36
24336;BME280;33098;52.400;16.880;2023-06-01T07:03:20;100711.64;;;18.95;55.34
24336;BME280;33098;52.400;16.880;2023-06-01T07:05:47;100710.51;;;18.99;55.44
24336;BME280;33098;52.400;16.880;2023-06-01T07:08:14;100709.09;;;19.00;55.52
24336;BME280;33098;52.400;16.880;2023-06-01T07:10:41;100705.01;;;18.97;55.51
24336;BME280;33098;52.400;16.880;2023-06-01T07:13:07;100702.71;;;18.99;55.66
24336;BME280;33098;52.400;16.880;2023-06-01T07:15:34;100702.09;;;19.05;55.58
24336;BME280;33098;52.400;16.880;2023-06-01T07:18:01;100701.58;;;19.13;55.67
24336;BME280;33098;52.400;16.880;2023-06-01T07:20:27;100701.40;;;19.18;55.50
24336;BME280;33098;52.400;16.880;2023-06-01T07:22:54;100696.79;;;19.24;55.54
24336;BME280;33098;52.400;16.880;2023-06-01T07:25:21;100690.91;;;19.26;55.66
24336;BME280;33098;52.400;16.880;2023-06-01T07:27:47;100693.86;;;19.32;55.54
24336;BME280;33098;52.400;16.880;2023-06-01T07:30:14;100692.23;;;19.32;55.78
24336;BME280;33098;52.400;16.880;2023-06-01T07:32:42;100689.64;;;19.35;55.73
24336;BME280;33098;52.400;16.880;2023-06-01T07:35:09;100682.57;;;19.38;55.62
24336;BME280;33098;52.400;16.880;2023-06-01T07:37:36;100681.34;;;19.43;55.75
24336;BME280;33098;52.400;16.880;2023-06-01T07:40:02;100678.95;;;19.51;55.60
24336;BME280;33098;52.400;16.880;2023-06-01T07:42:32;100690.91;;;19.59;55.49
24336;BME280;33098;52.400;16.880;2023-06-01T07:44:59;100680.31;;;19.57;54.85
24336;BME280;33098;52.400;16.880;2023-06-01T07:47:25;100684.40;;;19.56;54.71
24336;BME280;33098;52.400;16.880;2023-06-01T07:49:52;100676.67;;;19.57;54.77
24336;BME280;33098;52.400;16.880;2023-06-01T07:52:19;100673.92;;;19.62;54.92
24336;BME280;33098;52.400;16.880;2023-06-01T07:54:46;100674.55;;;19.71;54.96
24336;BME280;33098;52.400;16.880;2023-06-01T07:57:13;100672.27;;;19.77;54.90
24336;BME280;33098;52.400;16.880;2023-06-01T07:59:40;100672.70;;;19.80;54.64
24336;BME280;33098;52.400;16.880;2023-06-01T08:02:07;100668.55;;;19.83;54.76
24336;BME280;33098;52.400;16.880;2023-06-01T08:04:33;100669.50;;;19.91;55.01
24336;BME280;33098;52.400;16.880;2023-06-01T08:07:00;100669.28;;;19.96;54.78
24336;BME280;33098;52.400;16.880;2023-06-01T08:09:30;100666.73;;;20.02;54.43
24336;BME280;33098;52.400;16.880;2023-06-01T08:11:57;100670.21;;;20.09;54.15
24336;BME280;33098;52.400;16.880;2023-06-01T08:14:24;100673.61;;;20.11;53.23
24336;BME280;33098;52.400;16.880;2023-06-01T08:16:51;100668.38;;;20.10;53.11
24336;BME280;33098;52.400;16.880;2023-06-01T08:19:17;100666.41;;;20.13;52.86
24336;BME280;33098;52.400;16.880;2023-06-01T08:21:44;100667.46;;;20.16;52.94
24336;BME280;33098;52.400;16.880;2023-06-01T08:24:11;100664.61;;;20.18;52.94
24336;BME280;33098;52.400;16.880;2023-06-01T08:26:39;100662.30;;;20.22;52.56
24336;BME280;33098;52.400;16.880;2023-06-01T08:29:07;100658.33;;;20.25;52.52
24336;BME280;33098;52.400;16.880;2023-06-01T08:31:33;100661.45;;;20.28;52.02
24336;BME280;33098;52.400;16.880;2023-06-01T08:34:00;100660.42;;;20.30;51.59
24336;BME280;33098;52.400;16.880;2023-06-01T08:36:27;100657.52;;;20.31;51.61
24336;BME280;33098;52.400;16.880;2023-06-01T08:38:54;100657.31;;;20.34;51.39
24336;BME280;33098;52.400;16.880;2023-06-01T08:41:40;100655.48;;;20.40;51.21
24336;BME280;33098;52.400;16.880;2023-06-01T08:44:11;100659.70;;;20.46;51.10
24336;BME280;33098;52.400;16.880;2023-06-01T08:46:41;100649.91;;;20.53;51.11
24336;BME280;33098;52.400;16.880;2023-06-01T08:49:09;100655.29;;;20.60;50.96
24336;BME280;33098;52.400;16.880;2023-06-01T08:51:39;100650.74;;;20.65;50.82
24336;BME280;33098;52.400;16.880;2023-06-01T08:54:09;100653.27;;;20.75;50.92
24336;BME280;33098;52.400;16.880;2023-06-01T08:56:37;100649.52;;;20.78;50.69
24336;BME280;33098;52.400;16.880;2023-06-01T08:59:11;100655.59;;;20.80;50.90
24336;BME280;33098;52.400;16.880;2023-06-01T09:01:37;100654.20;;;20.84;50.82
24336;BME280;33098;52.400;16.880;2023-06-01T09:04:04;100651.06;;;20.87;50.82
24336;BME280;33098;52.400;16.880;2023-06-01T09:06:31;100658.39;;;20.91;50.86
24336;BME280;33098;52.400;16.880;2023-06-01T09:08:57;100648.91;;;20.96;50.87
24336;BME280;33098;52.400;16.880;2023-06-01T09:11:25;100655.88;;;21.01;50.89
24336;BME280;33098;52.400;16.880;2023-06-01T09:13:52;100660.30;;;21.05;50.53
24336;BME280;33098;52.400;16.880;2023-06-01T09:16:19;100657.63;;;21.03;50.47
24336;BME280;33098;52.400;16.880;2023-06-01T09:18:53;100650.29;;;21.07;50.50
24336;BME280;33098;52.400;16.880;2023-06-01T09:21:20;100658.06;;;21.12;50.18
24336;BME280;33098;52.400;16.880;2023-06-01T09:23:47;100658.15;;;21.13;50.23
24336;BME280;33098;52.400;16.880;2023-06-01T09:26:14;100653.50;;;21.17;50.17
24336;BME280;33098;52.400;16.880;2023-06-01T09:28:55;100651.02;;;21.21;50.23
24336;BME280;33098;52.400;16.880;2023-06-01T09:31:41;100652.23;;;21.27;50.15
24336;BME280;33098;52.400;16.880;2023-06-01T09:34:12;100653.21;;;21.31;49.97
24336;BME280;33098;52.400;16.880;2023-06-01T09:36:41;100653.11;;;21.30;49.73
24336;BME280;33098;52.400;16.880;2023-06-01T09:39:10;100648.43;;;21.32;49.72
24336;BME280;33098;52.400;16.880;2023-06-01T09:41:52;100648.27;;;21.39;49.77
24336;BME280;33098;52.400;16.880;2023-06-01T09:46:55;100648.21;;;21.46;49.43
24336;BME280;33098;52.400;16.880;2023-06-01T09:49:27;100644.04;;;21.55;49.34
24336;BME280;33098;52.400;16.880;2023-06-01T09:56:58;100631.99;;;21.72;49.37
24336;BME280;33098;52.400;16.880;2023-06-01T09:59:26;100629.69;;;21.82;49.39
24336;BME280;33098;52.400;16.880;2023-06-01T10:01:57;100629.50;;;21.91;49.13
24336;BME280;33098;52.400;16.880;2023-06-01T10:04:27;100621.84;;;21.97;49.05
24336;BME280;33098;52.400;16.880;2023-06-01T10:06:56;100623.17;;;22.00;48.67
24336;BME280;33098;52.400;16.880;2023-06-01T10:09:24;100627.61;;;22.05;48.45
24336;BME280;33098;52.400;16.880;2023-06-01T10:11:55;100626.88;;;22.15;48.33
24336;BME280;33098;52.400;16.880;2023-06-01T10:14:23;100631.56;;;22.24;47.81
24336;BME280;33098;52.400;16.880;2023-06-01T10:16:51;100625.49;;;22.23;47.60
24336;BME280;33098;52.400;16.880;2023-06-01T10:19:21;100620.05;;;22.32;48.03
24336;BME280;33098;52.400;16.880;2023-06-01T10:21:48;100617.04;;;22.48;47.84
24336;BME280;33098;52.400;16.880;2023-06-01T10:24:16;100613.63;;;22.59;47.65
24336;BME280;33098;52.400;16.880;2023-06-01T10:26:54;100615.15;;;22.67;47.46
24336;BME280;33098;52.400;16.880;2023-06-01T10:29:24;100612.22;;;22.76;47.44
24336;BME280;33098;52.400;16.880;2023-06-01T10:31:50;100607.05;;;22.89;47.52
24336;BME280;33098;52.400;16.880;2023-06-01T10:39:31;100606.27;;;23.29;46.99
24336;BME280;33098;52.400;16.880;2023-06-01T10:44:47;100602.85;;;23.57;46.62
24336;BME280;33098;52.400;16.880;2023-06-01T10:52:25;100609.23;;;23.79;46.39
24336;BME280;33098;52.400;16.880;2023-06-01T10:57:38;100607.26;;;24.09;46.78
24336;BME280;33098;52.400;16.880;2023-06-01T11:05:48;100602.98;;;24.47;47.33
24336;BME280;33098;52.400;16.880;2023-06-01T11:13:21;100601.95;;;24.86;47.29
24336;BME280;33098;52.400;16.880;2023-06-01T11:24:11;100598.81;;;25.37;46.04
24336;BME280;33098;52.400;16.880;2023-06-01T11:26:46;100598.41;;;25.53;46.18
24336;BME280;33098;52.400;16.880;2023-06-01T11:29:17;100600.25;;;25.76;46.13
24336;BME280;33098;52.400;16.880;2023-06-01T11:34:40;100592.05;;;26.18;45.54
24336;BME280;33098;52.400;16.880;2023-06-01T11:37:13;100595.57;;;26.29;44.96
24336;BME280;33098;52.400;16.880;2023-06-01T11:39:40;100597.30;;;26.33;44.29
24336;BME280;33098;52.400;16.880;2023-06-01T11:42:08;100593.38;;;26.42;44.21
24336;BME280;33098;52.400;16.880;2023-06-01T11:44:38;100600.91;;;26.55;43.68
24336;BME280;33098;52.400;16.880;2023-06-01T11:47:06;100588.39;;;26.66;43.40
24336;BME280;33098;52.400;16.880;2023-06-01T11:49:47;100589.16;;;26.69;42.92
24336;BME280;33098;52.400;16.880;2023-06-01T11:52:16;100584.79;;;26.80;42.82
24336;BME280;33098;52.400;16.880;2023-06-01T11:54:43;100583.73;;;26.96;42.52
24336;BME280;33098;52.400;16.880;2023-06-01T11:57:09;100578.27;;;27.10;41.72
24336;BME280;33098;52.400;16.880;2023-06-01T11:59:47;100576.83;;;27.25;41.82
24336;BME280;33098;52.400;16.880;2023-06-01T12:02:27;100579.61;;;27.44;41.52
24336;BME280;33098;52.400;16.880;2023-06-01T12:05:06;100570.43;;;27.64;41.41
24336;BME280;33098;52.400;16.880;2023-06-01T12:07:48;100576.29;;;27.79;41.07
24336;BME280;33098;52.400;16.880;2023-06-01T12:10:17;100572.67;;;27.99;40.82
24336;BME280;33098;52.400;16.880;2023-06-01T12:12:45;100571.59;;;28.24;40.38
24336;BME280;33098;52.400;16.880;2023-06-01T12:15:16;100568.39;;;28.37;39.92
24336;BME280;33098;52.400;16.880;2023-06-01T12:17:54;100572.46;;;28.45;39.83
24336;BME280;33098;52.400;16.880;2023-06-01T12:20:39;100568.65;;;28.54;39.34
24336;BME280;33098;52.400;16.880;2023-06-01T12:28:17;100567.64;;;28.91;38.75
24336;BME280;33098;52.400;16.880;2023-06-01T12:30:44;100574.20;;;29.03;38.03
24336;BME280;33098;52.400;16.880;2023-06-01T12:33:35;100561.09;;;29.11;38.30
24336;BME280;33098;52.400;16.880;2023-06-01T12:36:02;100568.20;;;29.27;38.28
24336;BME280;33098;52.400;16.880;2023-06-01T12:38:50;100565.41;;;29.48;38.15
24336;BME280;33098;52.400;16.880;2023-06-01T12:41:17;100567.23;;;29.69;37.50
24336;BME280;33098;52.400;16.880;2023-06-01T12:43:45;100560.65;;;29.78;37.47
24336;BME280;33098;52.400;16.880;2023-06-01T12:46:25;100558.77;;;29.89;37.20
24336;BME280;33098;52.400;16.880;2023-06-01T12:48:54;100555.31;;;30.18;37.18
24336;BME280;33098;52.400;16.880;2023-06-01T12:51:21;100554.97;;;30.47;36.82
24336;BME280;33098;52.400;16.880;2023-06-01T12:53:48;100556.02;;;30.80;36.63
24336;BME280;33098;52.400;16.880;2023-06-01T12:56:15;100552.52;;;31.09;35.94
24336;BME280;33098;52.400;16.880;2023-06-01T12:58:42;100549.20;;;31.21;35.73
24336;BME280;33098;52.400;16.880;2023-06-01T13:01:08;100541.23;;;31.35;35.71
24336;BME280;33098;52.400;16.880;2023-06-01T13:03:35;100543.64;;;31.62;35.32
24336;BME280;33098;52.400;16.880;2023-06-01T13:06:01;100550.21;;;31.86;35.10
24336;BME280;33098;52.400;16.880;2023-06-01T13:08:28;100540.55;;;32.20;34.87
24336;BME280;33098;52.400;16.880;2023-06-01T13:10:55;100541.05;;;32.50;34.47
24336;BME280;33098;52.400;16.880;2023-06-01T13:13:21;100539.87;;;32.80;34.25
24336;BME280;33098;52.400;16.880;2023-06-01T13:15:48;100538.47;;;33.22;33.61
24336;BME280;33098;52.400;16.880;2023-06-01T13:18:15;100539.79;;;33.74;33.68
24336;BME280;33098;52.400;16.880;2023-06-01T13:20:42;100542.02;;;34.49;33.24
24336;BME280;33098;52.400;16.880;2023-06-01T13:23:09;100539.33;;;35.34;32.40
24336;BME280;33098;52.400;16.880;2023-06-01T13:25:38;100538.08;;;36.06;31.59
24336;BME280;33098;52.400;16.880;2023-06-01T13:28:05;100541.36;;;36.81;30.69
24336;BME280;33098;52.400;16.880;2023-06-01T13:30:31;100542.30;;;37.52;29.64
24336;BME280;33098;52.400;16.880;2023-06-01T13:33:00;100540.06;;;38.07;29.19
24336;BME280;33098;52.400;16.880;2023-06-01T13:35:27;100542.55;;;39.14;29.10
24336;BME280;33098;52.400;16.880;2023-06-01T13:37:53;100534.90;;;40.08;27.24
24336;BME280;33098;52.400;16.880;2023-06-01T13:40:20;100533.45;;;40.80;26.76